Time;durP1;ratioP1;P1;durP2;ratioP2;P2;SDS_P1;SDS_P2;PMS_P1;PMS_P2;Temp;Humidity;BMP_temperature;BMP_pressure;BME280_temperature;BME280_humidity;BME280_pressure;Samples;Min_cycle;Max_cycle;Signal;HPM_P1;HPM_P2
2022/09/24 00:00:37;;;;;;;12.40;5.97;;;13.70;99.90;;;;;;5003638;28;20685;-73
2022/09/24 00:03:03;;;;;;;10.43;6.77;;;13.60;99.90;;;;;;4996067;28;20209;-73
2022/09/24 00:05:28;;;;;;;8.73;5.83;;;13.60;99.90;;;;;;4989485;28;20208;-75
2022/09/24 00:07:54;;;;;;;6.72;5.10;;;13.70;99.90;;;;;;5003334;28;20231;-72
2022/09/24 00:10:20;;;;;;;7.77;5.13;;;13.60;99.90;;;;;;5020281;28;20226;-72
2022/09/24 00:12:46;;;;;;;6.13;4.60;;;13.60;99.90;;;;;;4990614;28;20228;-72
2022/09/24 00:15:12;;;;;;;6.33;4.73;;;13.60;99.90;;;;;;5012459;28;20621;-72
2022/09/24 00:17:37;;;;;;;7.57;5.00;;;13.40;99.90;;;;;;5015076;28;20251;-73
2022/09/24 00:20:04;;;;;;;7.10;5.50;;;13.40;99.90;;;;;;5017548;28;20221;-75
2022/09/24 00:22:31;;;;;;;6.87;5.30;;;13.40;99.90;;;;;;4990244;28;20666;-75
2022/09/24 00:27:41;;;;;;;6.00;5.33;;;13.30;99.90;;;;;;5009215;28;20228;-71
2022/09/24 00:30:07;;;;;;;7.03;5.33;;;13.40;99.90;;;;;;5006274;28;20209;-73
2022/09/24 00:32:33;;;;;;;7.27;5.47;;;13.30;99.90;;;;;;5013052;28;20219;-72
2022/09/24 00:34:58;;;;;;;9.00;5.80;;;13.30;99.90;;;;;;5012453;28;20322;-74
2022/09/24 00:37:24;;;;;;;9.23;5.63;;;13.30;99.90;;;;;;5009009;28;20302;-72
2022/09/24 00:39:50;;;;;;;8.03;5.60;;;13.30;99.90;;;;;;4996424;28;20220;-73
2022/09/24 00:42:18;;;;;;;7.60;5.33;;;13.30;99.90;;;;;;5019293;28;20662;-71
2022/09/24 00:44:43;;;;;;;6.73;5.67;;;13.30;99.90;;;;;;5012304;28;20201;-71
2022/09/24 00:47:18;;;;;;;8.87;5.53;;;13.30;99.90;;;;;;4991733;28;20315;-73
2022/09/24 00:49:47;;;;;;;8.97;5.73;;;13.30;99.90;;;;;;5008974;28;20173;-70
2022/09/24 00:52:13;;;;;;;6.77;5.67;;;13.40;99.90;;;;;;5000349;28;20212;-71
2022/09/24 00:54:43;;;;;;;6.13;5.33;;;13.20;99.90;;;;;;5009258;28;20288;-71
2022/09/24 00:57:08;;;;;;;8.83;6.57;;;13.10;99.90;;;;;;5013350;28;20216;-71
2022/09/24 00:59:34;;;;;;;7.53;5.70;;;13.10;99.90;;;;;;5014179;28;20205;-73
2022/09/24 01:02:03;;;;;;;8.33;6.07;;;13.10;99.90;;;;;;5000913;28;20239;-72
2022/09/24 01:04:28;;;;;;;6.37;5.73;;;13.00;99.90;;;;;;5001548;28;20264;-72
2022/09/24 01:06:55;;;;;;;8.37;7.03;;;13.00;99.90;;;;;;5020538;28;20644;-73
2022/09/24 01:09:23;;;;;;;10.60;5.77;;;12.90;99.90;;;;;;5037169;28;20204;-74
2022/09/24 01:12:02;;;;;;;6.37;5.60;;;12.90;99.90;;;;;;5026341;28;20232;-72
2022/09/24 01:14:31;;;;;;;7.77;5.70;;;12.90;99.90;;;;;;5005353;28;20274;-73
2022/09/24 01:17:10;;;;;;;8.67;6.67;;;13.00;99.90;;;;;;4997560;28;20213;-73
2022/09/24 01:19:44;;;;;;;8.17;6.57;;;13.00;99.90;;;;;;5012051;28;20173;-73
2022/09/24 01:22:16;;;;;;;9.90;6.17;;;13.00;99.90;;;;;;5007688;28;20185;-72
2022/09/24 01:24:57;;;;;;;6.97;5.90;;;13.00;99.90;;;;;;5015121;28;20213;-71
2022/09/24 01:27:43;;;;;;;6.70;5.97;;;13.00;99.90;;;;;;5009577;28;20208;-72
2022/09/24 01:30:11;;;;;;;8.07;6.17;;;13.00;99.90;;;;;;5017993;28;20208;-75
2022/09/24 01:33:00;;;;;;;7.23;6.00;;;13.00;99.90;;;;;;5007982;28;20223;-72
2022/09/24 01:35:36;;;;;;;9.87;6.30;;;13.00;99.90;;;;;;4993877;28;20311;-72
2022/09/24 01:38:08;;;;;;;7.47;6.30;;;13.00;99.90;;;;;;5009645;28;20283;-72
2022/09/24 01:40:35;;;;;;;8.60;6.40;;;13.00;99.90;;;;;;4998938;28;20172;-74
2022/09/24 01:43:02;;;;;;;11.87;7.10;;;12.90;99.90;;;;;;5017340;28;20217;-72
2022/09/24 01:45:30;;;;;;;7.73;6.17;;;13.00;99.90;;;;;;5004231;28;20228;-72
2022/09/24 01:47:59;;;;;;;10.07;6.07;;;13.00;99.90;;;;;;5010949;28;20236;-72
2022/09/24 01:50:27;;;;;;;8.40;6.10;;;13.10;99.90;;;;;;5020354;28;20200;-71
2022/09/24 01:53:28;;;;;;;8.43;6.47;;;13.00;99.90;;;;;;5019761;28;20205;-72
2022/09/24 01:56:00;;;;;;;10.93;6.13;;;13.00;99.90;;;;;;4998952;28;21504;-71
2022/09/24 01:58:31;;;;;;;7.90;6.63;;;13.00;99.90;;;;;;5008695;28;20635;-71
2022/09/24 02:01:05;;;;;;;8.90;6.90;;;13.10;99.90;;;;;;4995814;28;20299;-71
2022/09/24 02:03:36;;;;;;;8.23;6.93;;;13.10;99.90;;;;;;5009975;28;20220;-72
2022/09/24 02:06:04;;;;;;;7.60;6.43;;;13.00;99.90;;;;;;4993977;28;20209;-72
2022/09/24 02:08:43;;;;;;;10.87;6.80;;;13.00;99.90;;;;;;5018076;28;20204;-71
2022/09/24 02:11:20;;;;;;;8.27;6.77;;;13.00;99.90;;;;;;4996497;28;20206;-72
2022/09/24 02:13:55;;;;;;;8.47;6.70;;;13.00;99.90;;;;;;5004630;28;20197;-70
2022/09/24 02:16:25;;;;;;;7.93;6.43;;;13.00;99.90;;;;;;5015025;28;20192;-71
2022/09/24 02:18:53;;;;;;;9.93;6.70;;;13.00;99.90;;;;;;5011741;28;20232;-71
2022/09/24 02:21:22;;;;;;;9.30;6.83;;;12.90;99.90;;;;;;5006709;28;20199;-72
2022/09/24 02:23:56;;;;;;;7.97;6.60;;;13.00;99.90;;;;;;5012037;28;20217;-74
2022/09/24 02:26:21;;;;;;;6.87;6.17;;;12.90;99.90;;;;;;5008031;28;20208;-71
2022/09/24 02:28:47;;;;;;;8.10;6.97;;;12.90;99.90;;;;;;4993284;28;20192;-72
2022/09/24 02:31:23;;;;;;;7.17;6.40;;;12.90;99.90;;;;;;5009996;28;20180;-72
2022/09/24 02:36:35;;;;;;;9.97;6.47;;;12.90;99.90;;;;;;5019015;28;20220;-74
2022/09/24 02:39:01;;;;;;;10.53;7.07;;;12.90;99.90;;;;;;4993564;28;20243;-75
2022/09/24 02:41:28;;;;;;;11.03;7.30;;;12.90;99.90;;;;;;4996644;28;20192;-72
2022/09/24 02:43:54;;;;;;;10.43;6.93;;;13.00;99.90;;;;;;5012501;28;20258;-72
2022/09/24 02:46:20;;;;;;;7.13;6.23;;;12.90;99.90;;;;;;5000282;28;20197;-71
2022/09/24 02:48:45;;;;;;;10.10;6.60;;;13.10;99.90;;;;;;5002298;28;20272;-72
2022/09/24 02:51:11;;;;;;;8.93;6.93;;;13.10;99.90;;;;;;5017833;28;20209;-72
2022/09/24 02:53:36;;;;;;;9.97;5.93;;;13.10;99.90;;;;;;5000777;28;20225;-75
2022/09/24 02:56:02;;;;;;;8.93;6.50;;;13.10;99.90;;;;;;5007105;28;20216;-75
2022/09/24 02:58:29;;;;;;;8.83;6.83;;;13.10;99.90;;;;;;4985785;28;20544;-75
2022/09/24 03:00:55;;;;;;;7.40;6.23;;;13.10;99.90;;;;;;5007542;28;20295;-73
2022/09/24 03:03:21;;;;;;;8.93;6.70;;;13.00;99.90;;;;;;4992869;28;20205;-73
2022/09/24 03:05:48;;;;;;;9.50;7.73;;;13.00;99.90;;;;;;4989702;28;20206;-73
2022/09/24 03:08:13;;;;;;;6.73;5.97;;;12.80;99.90;;;;;;5008618;28;20239;-73
2022/09/24 03:10:39;;;;;;;7.73;6.80;;;12.90;99.90;;;;;;5006808;28;20208;-75
2022/09/24 03:13:04;;;;;;;8.23;6.73;;;12.90;99.90;;;;;;5006226;28;20209;-70
2022/09/24 03:15:30;;;;;;;10.90;7.17;;;13.00;99.90;;;;;;5002743;28;20205;-72
2022/09/24 03:17:55;;;;;;;10.37;6.97;;;12.90;99.90;;;;;;5008448;28;20216;-74
2022/09/24 03:20:23;;;;;;;7.60;6.03;;;12.90;99.90;;;;;;5006456;28;20200;-71
2022/09/24 03:22:51;;;;;;;8.10;6.47;;;13.00;99.90;;;;;;5000444;28;20177;-75
2022/09/24 03:25:18;;;;;;;9.43;6.83;;;13.10;99.90;;;;;;4991946;28;20267;-72
2022/09/24 03:27:44;;;;;;;9.00;6.57;;;13.10;99.90;;;;;;5005633;28;20213;-72
2022/09/24 03:32:54;;;;;;;8.90;7.23;;;13.00;99.90;;;;;;5002538;28;20351;-72
2022/09/24 03:35:20;;;;;;;7.60;6.73;;;12.90;99.90;;;;;;5009861;28;20295;-72
2022/09/24 03:37:46;;;;;;;9.77;6.77;;;12.90;99.90;;;;;;5020788;23;20223;-81
2022/09/24 03:40:12;;;;;;;8.50;6.83;;;12.80;99.90;;;;;;5018073;28;20548;-83
2022/09/24 03:42:38;;;;;;;8.10;6.83;;;12.80;99.90;;;;;;5028645;28;20212;-82
2022/09/24 03:45:04;;;;;;;8.90;7.07;;;12.90;99.90;;;;;;5007809;28;20201;-82
2022/09/24 03:47:30;;;;;;;7.30;6.60;;;12.70;99.90;;;;;;5030184;28;20655;-82
2022/09/24 03:49:56;;;;;;;7.90;6.90;;;12.70;99.90;;;;;;4997679;28;20298;-82
2022/09/24 03:52:22;;;;;;;11.50;7.37;;;12.80;99.90;;;;;;5029303;28;20287;-82
2022/09/24 03:54:49;;;;;;;11.77;7.67;;;12.70;99.90;;;;;;5014315;28;20205;-82
2022/09/24 03:57:15;;;;;;;10.33;7.07;;;12.80;99.90;;;;;;5012964;28;20279;-82
2022/09/24 03:59:41;;;;;;;9.37;7.27;;;12.70;99.90;;;;;;5008243;28;20236;-83
2022/09/24 04:02:07;;;;;;;11.37;7.67;;;12.70;99.90;;;;;;5008074;28;20208;-83
2022/09/24 04:04:33;;;;;;;8.07;7.20;;;12.70;99.90;;;;;;5024804;28;20173;-82
2022/09/24 04:06:59;;;;;;;7.77;6.90;;;12.70;99.90;;;;;;5005944;28;20295;-82
2022/09/24 04:09:25;;;;;;;8.70;7.30;;;12.60;99.90;;;;;;5027991;28;20606;-82
2022/09/24 04:11:52;;;;;;;11.93;7.67;;;12.60;99.90;;;;;;5026794;28;20569;-83
2022/09/24 04:14:18;;;;;;;9.13;7.03;;;12.70;99.90;;;;;;5014500;28;20196;-83
2022/09/24 04:16:44;;;;;;;10.23;7.47;;;12.60;99.90;;;;;;5032040;28;20230;-83
2022/09/24 04:19:11;;;;;;;8.37;7.20;;;12.60;99.90;;;;;;5026948;28;20371;-81
2022/09/24 04:21:37;;;;;;;8.43;7.20;;;12.50;99.90;;;;;;5005935;28;20212;-83
2022/09/24 04:24:03;;;;;;;12.27;7.63;;;12.50;99.90;;;;;;5007151;28;20200;-82
2022/09/24 04:26:29;;;;;;;8.87;7.40;;;12.50;99.90;;;;;;5031332;28;20274;-82
2022/09/24 04:28:55;;;;;;;9.07;6.80;;;12.50;99.90;;;;;;5008470;28;20212;-82
2022/09/24 04:31:21;;;;;;;9.50;7.07;;;12.50;99.90;;;;;;5016766;28;20168;-83
2022/09/24 04:33:46;;;;;;;9.03;7.13;;;12.50;99.90;;;;;;5011658;28;20212;-81
2022/09/24 04:36:12;;;;;;;14.43;7.60;;;12.40;99.90;;;;;;5030850;28;20753;-83
2022/09/24 04:38:37;;;;;;;8.60;7.70;;;12.40;99.90;;;;;;5002111;28;20304;-82
2022/09/24 04:41:07;;;;;;;8.20;7.37;;;12.30;99.90;;;;;;5027749;28;20572;-82
2022/09/24 04:43:35;;;;;;;11.07;7.03;;;12.40;99.90;;;;;;5032131;28;20188;-82
2022/09/24 04:46:01;;;;;;;9.67;7.50;;;12.40;99.90;;;;;;5015930;28;20280;-83
2022/09/24 04:48:27;;;;;;;10.70;7.67;;;12.40;99.90;;;;;;5027234;28;20296;-83
2022/09/24 04:50:52;;;;;;;15.37;7.60;;;12.40;99.90;;;;;;5029640;28;20265;-81
2022/09/24 04:53:18;;;;;;;8.43;7.07;;;12.60;99.90;;;;;;5013329;28;20220;-82
2022/09/24 04:55:44;;;;;;;10.43;7.27;;;12.60;99.90;;;;;;5029330;28;20694;-83
2022/09/24 04:58:09;;;;;;;9.20;8.00;;;12.60;99.90;;;;;;5012121;28;20204;-76
2022/09/24 05:00:35;;;;;;;13.60;8.90;;;12.60;99.90;;;;;;5040642;28;20337;-82
2022/09/24 05:03:04;;;;;;;10.13;7.87;;;12.50;99.90;;;;;;5014471;28;20205;-82
2022/09/24 05:05:31;;;;;;;10.60;7.27;;;12.50;99.90;;;;;;5026407;28;20313;-83
2022/09/24 05:07:57;;;;;;;8.23;7.23;;;12.50;99.90;;;;;;5011549;28;20215;-76
2022/09/24 05:10:25;;;;;;;10.27;8.07;;;12.50;99.90;;;;;;5014998;28;20207;-83
2022/09/24 05:12:50;;;;;;;11.83;7.50;;;12.50;99.90;;;;;;5007969;28;20217;-83
2022/09/24 05:15:18;;;;;;;9.97;7.97;;;12.50;99.90;;;;;;5016711;28;20196;-82
2022/09/24 05:17:44;;;;;;;8.90;7.67;;;12.50;99.90;;;;;;5025525;28;20204;-82
2022/09/24 05:20:10;;;;;;;8.70;6.80;;;12.40;99.90;;;;;;5016119;28;20211;-81
2022/09/24 05:22:43;;;;;;;10.03;7.40;;;12.40;99.90;;;;;;5009621;28;20211;-82
2022/09/24 05:25:10;;;;;;;10.17;7.63;;;12.40;99.90;;;;;;5024600;28;20280;-82
2022/09/24 05:27:36;;;;;;;10.73;7.23;;;12.50;99.90;;;;;;5036584;28;20208;-82
2022/09/24 05:30:02;;;;;;;9.60;8.20;;;12.50;99.90;;;;;;5010427;28;20239;-81
2022/09/24 05:32:28;;;;;;;10.87;8.03;;;12.50;99.90;;;;;;5015270;28;20215;-82
2022/09/24 05:34:53;;;;;;;11.10;8.07;;;12.40;99.90;;;;;;5029592;28;20208;-81
2022/09/24 05:37:19;;;;;;;10.23;8.43;;;12.40;99.90;;;;;;5030683;28;20183;-82
2022/09/24 05:39:44;;;;;;;8.30;7.23;;;12.30;99.90;;;;;;5011498;28;20256;-84
2022/09/24 05:42:13;;;;;;;9.20;7.03;;;12.30;99.90;;;;;;5013040;28;20232;-82
2022/09/24 05:44:40;;;;;;;10.07;7.03;;;12.30;99.90;;;;;;5020894;28;20211;-82
2022/09/24 05:47:05;;;;;;;10.53;7.70;;;12.40;99.90;;;;;;5034499;28;20215;-83
2022/09/24 05:49:31;;;;;;;9.97;7.67;;;12.40;99.90;;;;;;5015932;28;20188;-82
2022/09/24 05:51:56;;;;;;;10.47;7.63;;;12.40;99.90;;;;;;5022684;28;20226;-82
2022/09/24 05:54:22;;;;;;;10.70;8.53;;;12.40;99.90;;;;;;5045074;28;20563;-83
2022/09/24 05:56:48;;;;;;;8.77;7.40;;;12.40;99.90;;;;;;5012384;28;20216;-82
2022/09/24 05:59:13;;;;;;;9.10;7.23;;;12.40;99.90;;;;;;5038970;28;20258;-84
2022/09/24 06:01:39;;;;;;;9.30;8.23;;;12.50;99.90;;;;;;5023674;28;20179;-84
2022/09/24 06:04:05;;;;;;;10.57;7.57;;;12.60;99.90;;;;;;5015528;28;20184;-84
2022/09/24 06:06:30;;;;;;;9.77;7.57;;;12.60;99.90;;;;;;5015556;28;20259;-83
2022/09/24 06:08:56;;;;;;;8.70;7.20;;;12.70;99.90;;;;;;5039303;28;20211;-84
2022/09/24 06:11:21;;;;;;;10.57;6.87;;;12.70;99.90;;;;;;5022396;28;20204;-83
2022/09/24 06:13:50;;;;;;;34.93;25.43;;;12.70;99.90;;;;;;5010471;28;20201;-83
2022/09/24 06:16:16;;;;;;;10.90;7.60;;;12.70;99.90;;;;;;5038594;28;20198;-84
2022/09/24 06:18:43;;;;;;;9.30;7.60;;;12.70;99.90;;;;;;5019618;28;20208;-83
2022/09/24 06:21:16;;;;;;;16.70;10.43;;;12.80;99.90;;;;;;5017986;28;20263;-84
2022/09/24 06:23:44;;;;;;;9.23;7.93;;;13.00;99.90;;;;;;5008132;28;20288;-83
2022/09/24 06:26:11;;;;;;;10.50;7.43;;;13.10;99.90;;;;;;5041116;28;20211;-83
2022/09/24 06:28:37;;;;;;;10.50;7.93;;;13.10;99.90;;;;;;5033915;28;20222;-84
2022/09/24 06:31:04;;;;;;;10.30;8.17;;;13.20;99.90;;;;;;5014234;28;20184;-83
2022/09/24 06:33:29;;;;;;;11.83;8.00;;;13.30;99.90;;;;;;5020881;28;20695;-82
2022/09/24 06:35:59;;;;;;;9.27;8.13;;;13.30;99.90;;;;;;5036328;28;20295;-82
2022/09/24 06:38:25;;;;;;;10.10;7.87;;;13.30;99.90;;;;;;5021426;28;20623;-84
2022/09/24 06:40:51;;;;;;;9.30;7.00;;;13.20;99.90;;;;;;5011865;28;20177;-83
2022/09/24 06:43:17;;;;;;;12.47;7.20;;;13.30;99.90;;;;;;5036255;28;20172;-82
2022/09/24 06:45:42;;;;;;;10.93;8.00;;;13.60;99.90;;;;;;5016541;28;20200;-84
2022/09/24 06:48:11;;;;;;;11.47;8.20;;;13.70;99.90;;;;;;5013034;28;20354;-83
2022/09/24 06:50:42;;;;;;;9.10;7.70;;;13.50;99.90;;;;;;5020340;28;20211;-83
2022/09/24 06:53:08;;;;;;;8.30;7.30;;;13.50;99.90;;;;;;5020003;28;20248;-82
2022/09/24 06:55:35;;;;;;;9.43;7.90;;;13.40;99.90;;;;;;5033681;28;20184;-83
2022/09/24 06:58:03;;;;;;;11.93;7.53;;;13.30;99.90;;;;;;5030317;28;20193;-83
2022/09/24 07:00:28;;;;;;;10.40;8.33;;;13.20;99.90;;;;;;5025963;28;20237;-81
2022/09/24 07:02:54;;;;;;;8.70;7.50;;;13.30;99.90;;;;;;5015900;28;20213;-83
2022/09/24 07:05:19;;;;;;;9.70;7.80;;;13.30;99.90;;;;;;5031345;28;20208;-83
2022/09/24 07:07:45;;;;;;;9.27;7.70;;;13.30;99.90;;;;;;5038604;28;20279;-82
2022/09/24 07:10:11;;;;;;;10.33;7.33;;;13.30;99.90;;;;;;5039307;28;20181;-83
2022/09/24 07:12:37;;;;;;;10.30;8.30;;;13.30;99.90;;;;;;5032065;28;20231;-83
2022/09/24 07:15:03;;;;;;;10.10;8.07;;;13.30;99.90;;;;;;5011794;28;20284;-83
2022/09/24 07:17:28;;;;;;;13.57;8.33;;;13.30;99.90;;;;;;5042091;28;20581;-82
2022/09/24 07:19:54;;;;;;;11.53;8.10;;;13.30;99.90;;;;;;5015809;28;20223;-82
2022/09/24 07:22:21;;;;;;;71.20;35.67;;;13.40;99.90;;;;;;5032026;28;20254;-83
2022/09/24 07:24:47;;;;;;;10.33;8.23;;;13.60;99.90;;;;;;5030948;28;20288;-82
2022/09/24 07:27:13;;;;;;;10.53;7.80;;;13.40;99.90;;;;;;5038566;28;20745;-83
2022/09/24 07:29:39;;;;;;;9.60;7.67;;;13.50;99.90;;;;;;5019780;28;20208;-83
2022/09/24 07:32:05;;;;;;;9.67;7.37;;;13.60;99.90;;;;;;5028633;28;20252;-83
2022/09/24 07:34:31;;;;;;;21.97;18.20;;;13.80;99.90;;;;;;5042780;28;20180;-83
2022/09/24 07:36:57;;;;;;;19.30;15.73;;;13.90;99.90;;;;;;5035932;28;20209;-82
2022/09/24 07:39:24;;;;;;;12.80;9.77;;;14.00;99.90;;;;;;5018645;28;20219;-83
2022/09/24 07:41:51;;;;;;;10.07;8.03;;;13.90;99.90;;;;;;5024141;28;20205;-83
2022/09/24 07:44:21;;;;;;;11.67;7.73;;;13.90;99.90;;;;;;5039697;28;20279;-83
2022/09/24 07:46:48;;;;;;;12.23;8.20;;;13.90;99.90;;;;;;5014207;28;20186;-82
2022/09/24 07:49:13;;;;;;;12.60;8.63;;;13.80;99.90;;;;;;5013097;28;20501;-83
2022/09/24 07:51:39;;;;;;;8.27;7.47;;;13.80;99.90;;;;;;5039873;28;20210;-82
2022/09/24 07:54:05;;;;;;;8.93;7.53;;;13.80;99.90;;;;;;5038000;28;20219;-82
2022/09/24 07:56:31;;;;;;;8.55;7.28;;;13.80;99.90;;;;;;5012196;28;20210;-82
2022/09/24 07:58:57;;;;;;;9.35;7.28;;;13.90;99.90;;;;;;5013643;28;20223;-82
2022/09/24 08:01:23;;;;;;;11.20;7.90;;;13.90;99.90;;;;;;5025061;28;20578;-82
2022/09/24 08:03:51;;;;;;;13.35;7.88;;;13.70;99.90;;;;;;5016621;28;20208;-83
2022/09/24 08:06:17;;;;;;;13.68;8.75;;;13.60;99.90;;;;;;5022362;28;20230;-82
2022/09/24 08:08:43;;;;;;;11.93;7.47;;;13.70;99.90;;;;;;5044817;28;20238;-83
2022/09/24 08:11:12;;;;;;;8.73;7.10;;;13.70;99.90;;;;;;5039963;28;20678;-83
2022/09/24 08:13:37;;;;;;;10.02;7.70;;;13.70;99.90;;;;;;5019545;28;20267;-83
2022/09/24 08:16:03;;;;;;;9.65;7.70;;;13.90;99.90;;;;;;5039555;28;20201;-83
2022/09/24 08:18:30;;;;;;;9.18;7.82;;;14.10;99.90;;;;;;5028203;28;20239;-83
2022/09/24 08:21:08;;;;;;;9.65;8.07;;;14.10;99.90;;;;;;5035366;28;20208;-83
2022/09/24 08:23:35;;;;;;;9.15;7.93;;;14.10;99.90;;;;;;5018807;28;20207;-83
2022/09/24 08:26:01;;;;;;;9.77;7.90;;;14.20;99.90;;;;;;5025420;28;20216;-83
2022/09/24 08:28:27;;;;;;;9.10;8.20;;;14.30;99.90;;;;;;5025571;28;20196;-83
2022/09/24 08:31:00;;;;;;;12.35;8.25;;;14.30;99.90;;;;;;5014933;28;20209;-83
2022/09/24 08:33:26;;;;;;;11.82;7.80;;;14.40;99.90;;;;;;5038325;28;20697;-83
2022/09/24 08:35:52;;;;;;;10.23;7.63;;;14.40;99.90;;;;;;5018440;28;20200;-82
2022/09/24 08:38:19;;;;;;;11.15;8.93;;;14.30;99.90;;;;;;5020604;28;20245;-83
2022/09/24 08:40:59;;;;;;;8.77;7.50;;;14.50;99.90;;;;;;5007763;28;20185;-82
2022/09/24 08:43:53;;;;;;;9.10;7.50;;;14.80;99.90;;;;;;5024402;28;20194;-83
2022/09/24 08:49:20;;;;;;;10.93;8.02;;;15.30;99.90;;;;;;5035558;28;20288;-82
2022/09/24 08:52:08;;;;;;;9.75;7.97;;;15.40;99.90;;;;;;5041310;28;20208;-83
2022/09/24 08:54:36;;;;;;;13.13;10.02;;;15.40;99.90;;;;;;5036607;28;20196;-84
2022/09/24 08:57:10;;;;;;;10.13;8.15;;;15.40;99.90;;;;;;5031862;28;20205;-84
2022/09/24 08:59:38;;;;;;;13.60;7.82;;;15.40;99.90;;;;;;5022095;28;20239;-83
2022/09/24 09:02:22;;;;;;;9.82;7.38;;;15.40;99.90;;;;;;5038851;28;20205;-83
2022/09/24 09:04:56;;;;;;;9.32;8.27;;;15.60;99.90;;;;;;5033253;28;20185;-83
2022/09/24 09:07:44;;;;;;;8.73;7.80;;;15.80;99.90;;;;;;5039487;28;20190;-83
2022/09/24 09:10:26;;;;;;;10.20;7.80;;;15.80;99.90;;;;;;5035337;28;20220;-83
2022/09/24 09:12:55;;;;;;;8.35;7.50;;;15.90;99.90;;;;;;5014062;28;20753;-81
2022/09/24 09:15:28;;;;;;;8.57;7.55;;;15.70;99.90;;;;;;5030392;28;20300;-82
2022/09/24 09:18:04;;;;;;;10.57;7.57;;;15.70;99.90;;;;;;5017641;28;20232;-81
2022/09/24 09:20:41;;;;;;;9.95;7.70;;;15.80;99.90;;;;;;5021012;28;20208;-82
2022/09/24 09:23:43;;;;;;;12.05;7.57;;;15.90;99.90;;;;;;5008803;28;20205;-82
2022/09/24 09:26:10;;;;;;;8.63;7.18;;;16.20;99.90;;;;;;5041052;28;20211;-83
2022/09/24 09:28:36;;;;;;;12.82;8.05;;;16.20;99.90;;;;;;5035613;28;20188;-81
2022/09/24 09:31:17;;;;;;;10.80;7.45;;;16.20;99.90;;;;;;5029762;28;20198;-82
2022/09/24 09:34:03;;;;;;;8.55;7.40;;;16.40;99.90;;;;;;5020245;28;20227;-82
2022/09/24 09:36:57;;;;;;;9.60;7.28;;;16.20;99.90;;;;;;5015247;28;20211;-83
2022/09/24 09:39:48;;;;;;;10.85;7.72;;;16.00;99.90;;;;;;5047313;23;20227;-72
2022/09/24 09:42:30;;;;;;;10.23;7.47;;;15.90;99.90;;;;;;5037505;28;20265;-72
2022/09/24 09:45:00;;;;;;;11.35;8.27;;;16.00;99.90;;;;;;5035774;28;20283;-72
2022/09/24 09:47:58;;;;;;;13.70;8.27;;;15.90;99.90;;;;;;5037247;28;20204;-72
2022/09/24 09:50:27;;;;;;;10.40;7.97;;;15.90;99.90;;;;;;4998990;28;20608;-72
2022/09/24 09:52:53;;;;;;;10.48;7.07;;;15.70;99.90;;;;;;5017308;28;20330;-73
2022/09/24 09:55:25;;;;;;;12.52;7.50;;;15.80;99.90;;;;;;5016649;28;20173;-71
2022/09/24 09:57:52;;;;;;;7.80;6.93;;;15.90;99.90;;;;;;5014171;28;20213;-72
2022/09/24 10:00:33;;;;;;;9.57;7.68;;;15.80;99.90;;;;;;5013595;28;20642;-71
2022/09/24 10:02:59;;;;;;;9.68;7.57;;;15.90;99.90;;;;;;5016733;28;20691;-72
2022/09/24 10:05:27;;;;;;;8.88;7.40;;;15.80;99.90;;;;;;5013200;28;20207;-72
2022/09/24 10:07:57;;;;;;;11.00;8.13;;;15.90;99.90;;;;;;5001431;28;20347;-72
2022/09/24 10:10:27;;;;;;;9.15;7.25;;;16.10;99.90;;;;;;5018462;28;20188;-71
2022/09/24 10:13:12;;;;;;;9.57;7.28;;;16.10;99.90;;;;;;4997646;28;20275;-70
2022/09/24 10:15:53;;;;;;;11.27;7.47;;;16.20;99.90;;;;;;5014529;28;20196;-71
2022/09/24 10:18:33;;;;;;;9.50;7.45;;;16.30;99.90;;;;;;5010010;28;20200;-71
2022/09/24 10:21:03;;;;;;;11.80;7.45;;;16.20;99.90;;;;;;5015159;28;20200;-71
2022/09/24 10:23:38;;;;;;;9.90;7.60;;;16.10;99.90;;;;;;5012365;28;20220;-70
2022/09/24 10:26:05;;;;;;;10.35;7.72;;;16.10;99.90;;;;;;5019253;28;20296;-71
2022/09/24 10:31:22;;;;;;;8.35;7.13;;;15.90;99.90;;;;;;5011626;28;20722;-70
2022/09/24 10:33:52;;;;;;;8.18;6.70;;;15.90;99.90;;;;;;5018395;28;20221;-71
2022/09/24 10:36:28;;;;;;;8.93;7.28;;;15.90;99.90;;;;;;5012923;28;20234;-71
2022/09/24 10:39:06;;;;;;;10.60;6.80;;;16.00;99.90;;;;;;5013491;28;20291;-71
2022/09/24 10:41:31;;;;;;;10.18;6.72;;;16.00;99.90;;;;;;5011950;28;20228;-71
2022/09/24 10:44:05;;;;;;;9.60;7.15;;;16.00;99.90;;;;;;5017655;28;20286;-70
2022/09/24 10:46:49;;;;;;;8.25;6.78;;;16.10;99.90;;;;;;5015237;28;20169;-71
2022/09/24 10:49:33;;;;;;;7.82;6.97;;;16.10;99.90;;;;;;5015874;28;20212;-72
2022/09/24 10:52:36;;;;;;;9.43;7.13;;;16.00;99.90;;;;;;5018032;28;20601;-72
2022/09/24 10:55:05;;;;;;;10.27;6.90;;;16.00;99.90;;;;;;5015558;28;20201;-72
2022/09/24 10:57:38;;;;;;;8.68;6.75;;;16.10;99.90;;;;;;5011847;28;20215;-72
2022/09/24 11:00:10;;;;;;;9.80;7.05;;;16.20;99.90;;;;;;5018769;28;20343;-70
2022/09/24 11:02:36;;;;;;;9.45;7.05;;;16.20;99.90;;;;;;4997532;28;20200;-72
2022/09/24 11:05:11;;;;;;;9.57;6.90;;;16.40;99.90;;;;;;5013448;28;20205;-72
2022/09/24 11:08:00;;;;;;;9.27;6.57;;;16.50;99.90;;;;;;5014355;28;20160;-71
2022/09/24 11:10:31;;;;;;;8.15;6.65;;;16.60;99.90;;;;;;5013919;28;20192;-72
2022/09/24 11:13:15;;;;;;;7.55;6.70;;;16.70;99.90;;;;;;5011943;28;20457;-71
2022/09/24 11:16:14;;;;;;;8.93;7.43;;;16.90;99.90;;;;;;5009547;28;20200;-72
2022/09/24 11:18:58;;;;;;;8.20;6.63;;;17.00;99.90;;;;;;4995469;28;20572;-71
2022/09/24 11:21:36;;;;;;;9.82;7.15;;;17.00;99.90;;;;;;5011479;28;20212;-71
2022/09/24 11:24:23;;;;;;;7.72;6.82;;;16.90;99.90;;;;;;5010455;28;20204;-71
2022/09/24 11:27:19;;;;;;;7.40;6.10;;;17.10;99.90;;;;;;5015889;28;20200;-72
2022/09/24 11:30:13;;;;;;;8.82;7.05;;;17.20;99.90;;;;;;5007123;28;20204;-71
2022/09/24 11:32:50;;;;;;;7.85;6.20;;;17.40;99.90;;;;;;4995154;28;20685;-73
2022/09/24 11:35:25;;;;;;;7.60;6.13;;;17.40;99.90;;;;;;5018827;28;20636;-71
2022/09/24 11:38:08;;;;;;;7.70;6.50;;;17.30;99.90;;;;;;4995092;28;20180;-71
2022/09/24 11:41:10;;;;;;;7.07;6.38;;;17.30;99.90;;;;;;5008055;28;20204;-72
2022/09/24 11:43:53;;;;;;;6.82;6.18;;;17.20;99.90;;;;;;5012619;28;20315;-71
2022/09/24 11:46:27;;;;;;;7.78;6.03;;;17.40;99.90;;;;;;5011917;28;20176;-70
2022/09/24 11:48:55;;;;;;;7.07;6.07;;;17.50;99.90;;;;;;5011660;28;20237;-70
2022/09/24 11:51:59;;;;;;;7.50;6.53;;;17.50;99.90;;;;;;5019721;28;20204;-71
2022/09/24 11:54:30;;;;;;;7.05;6.10;;;17.50;99.90;;;;;;5012369;28;20216;-71
2022/09/24 11:57:22;;;;;;;8.80;5.90;;;17.40;99.90;;;;;;5011037;28;20232;-71
2022/09/24 11:59:53;;;;;;;7.28;5.95;;;17.50;99.90;;;;;;5013015;28;20205;-71
2022/09/24 12:02:29;;;;;;;11.80;6.60;;;17.30;99.90;;;;;;5012543;28;20308;-72
2022/09/24 12:05:05;;;;;;;9.13;6.43;;;17.50;99.90;;;;;;5011127;28;20212;-71
2022/09/24 12:07:52;;;;;;;6.78;5.47;;;17.50;99.90;;;;;;4991974;28;20185;-71
2022/09/24 12:10:28;;;;;;;6.68;5.35;;;17.60;99.90;;;;;;4988931;28;20698;-72
2022/09/24 12:13:18;;;;;;;7.47;5.60;;;17.50;99.90;;;;;;5012411;28;20227;-72
2022/09/24 12:16:14;;;;;;;7.60;5.25;;;17.50;99.90;;;;;;5009389;28;20204;-71
2022/09/24 12:19:02;;;;;;;7.15;5.55;;;17.50;99.90;;;;;;5010044;28;20668;-72
2022/09/24 12:21:35;;;;;;;5.57;4.97;;;17.70;99.90;;;;;;5010150;28;20569;-72
2022/09/24 12:24:43;;;;;;;6.95;5.18;;;17.70;99.90;;;;;;5009806;28;20237;-72
2022/09/24 12:27:35;;;;;;;6.03;5.43;;;17.70;99.90;;;;;;5006912;28;20695;-72
2022/09/24 12:33:38;;;;;;;6.90;5.70;;;17.50;99.90;;;;;;5014854;28;20709;-72
2022/09/24 12:36:27;;;;;;;7.28;4.85;;;17.60;99.90;;;;;;5029781;28;20211;-72
2022/09/24 12:38:59;;;;;;;6.72;5.13;;;17.60;99.90;;;;;;5005891;28;20267;-72
2022/09/24 12:41:34;;;;;;;5.70;5.10;;;17.70;99.90;;;;;;5010377;28;20256;-72
2022/09/24 12:44:09;;;;;;;6.53;4.90;;;17.80;99.90;;;;;;5016820;28;20700;-72
2022/09/24 12:46:44;;;;;;;7.28;5.53;;;17.90;99.90;;;;;;5013706;28;20627;-72
2022/09/24 12:49:25;;;;;;;6.07;5.32;;;18.10;99.90;;;;;;4995599;28;20222;-71
2022/09/24 12:52:30;;;;;;;8.23;5.80;;;17.90;99.90;;;;;;5016475;28;20663;-72
2022/09/24 12:55:01;;;;;;;5.85;5.22;;;17.90;99.90;;;;;;4955613;28;20207;-73
2022/09/24 12:57:52;;;;;;;8.45;6.13;;;18.10;99.90;;;;;;4995764;28;20247;-71
2022/09/24 13:00:40;;;;;;;7.85;6.20;;;18.20;99.90;;;;;;5004281;28;20208;-72
2022/09/24 13:03:06;;;;;;;7.38;5.47;;;17.90;99.90;;;;;;5000717;28;20260;-72
2022/09/24 13:05:44;;;;;;;6.47;5.72;;;17.90;99.90;;;;;;5014637;28;20216;-72
2022/09/24 13:08:13;;;;;;;7.07;5.50;;;17.70;99.90;;;;;;5018677;28;20265;-72
2022/09/24 13:10:38;;;;;;;8.65;6.32;;;17.80;99.90;;;;;;5014842;28;20193;-72
2022/09/24 13:13:31;;;;;;;8.27;5.85;;;17.60;99.90;;;;;;5020876;28;20196;-72
2022/09/24 13:16:04;;;;;;;7.50;5.75;;;17.60;99.90;;;;;;5016544;28;20675;-72
2022/09/24 13:18:35;;;;;;;7.63;5.60;;;17.80;99.90;;;;;;5019832;28;20208;-72
2022/09/24 13:21:06;;;;;;;7.00;6.05;;;17.90;99.90;;;;;;5024317;28;20207;-73